DRZA

Mano Dayak International Airport

Agadez, Niger
METAR DRZA 201200Z 09018KT 3000 DU NSC 27/M03 Q1017
Observed Flight Rules
Jan-20 @ 12:00 UTC (an hour ago) Instrument Flight Rules
Wind Visibility Clouds Conditions
90° at 18 knots 2,993 meters
  • Clear skies
  • Dust
Temperatures Readings
Current 27°C / 81°F
Dewpoint -3°C / 27°F
Humidity 14%
Altimeter 30.03" Hg
Pressure 1017 hPa
Elevation 502
METAR DRZA 201200Z 09018KT 3000 DU NSC 27/M03 Q1017
Observed Flight Rules
Jan-20 @ 12:00 UTC
(an hour ago)
IFR
Wind Visibility
90° at 18 knots 2,993 meters
Clouds
  • Clear skies
Conditions
  • Dust
Temperature Dewpoint
27°C / 81°F -3°C / 27°F
Humidity Altimeter Pressure
14% 30.03" Hg 1017 hPa